sensor_id;sensor_type;location;lat;lon;timestamp;P1;durP1;ratioP1;P2;durP2;ratioP2
25213;SDS011;13160;51.834;4.706;2023-04-03T00:01:22;4.40;;;1.85;;
25213;SDS011;13160;51.834;4.706;2023-04-03T00:03:51;9.05;;;1.92;;
25213;SDS011;13160;51.834;4.706;2023-04-03T00:06:19;6.35;;;1.85;;
25213;SDS011;13160;51.834;4.706;2023-04-03T00:08:48;6.18;;;1.75;;
25213;SDS011;13160;51.834;4.706;2023-04-03T00:11:18;7.18;;;2.13;;
25213;SDS011;13160;51.834;4.706;2023-04-03T00:13:47;6.15;;;1.60;;
25213;SDS011;13160;51.834;4.706;2023-04-03T00:16:16;4.35;;;1.63;;
25213;SDS011;13160;51.834;4.706;2023-04-03T00:18:45;3.88;;;1.75;;
25213;SDS011;13160;51.834;4.706;2023-04-03T00:21:13;4.53;;;2.00;;
25213;SDS011;13160;51.834;4.706;2023-04-03T00:23:42;7.13;;;1.95;;
25213;SDS011;13160;51.834;4.706;2023-04-03T00:26:11;8.00;;;2.00;;
25213;SDS011;13160;51.834;4.706;2023-04-03T00:28:40;4.70;;;1.80;;
25213;SDS011;13160;51.834;4.706;2023-04-03T00:31:09;3.67;;;1.75;;
25213;SDS011;13160;51.834;4.706;2023-04-03T00:33:37;4.60;;;1.60;;
25213;SDS011;13160;51.834;4.706;2023-04-03T00:36:06;5.15;;;1.92;;
25213;SDS011;13160;51.834;4.706;2023-04-03T00:38:36;8.75;;;1.70;;
25213;SDS011;13160;51.834;4.706;2023-04-03T00:41:06;5.07;;;1.88;;
25213;SDS011;13160;51.834;4.706;2023-04-03T00:43:34;2.85;;;1.33;;
25213;SDS011;13160;51.834;4.706;2023-04-03T00:46:04;2.88;;;1.50;;
25213;SDS011;13160;51.834;4.706;2023-04-03T00:48:34;4.93;;;1.98;;
25213;SDS011;13160;51.834;4.706;2023-04-03T00:51:08;4.80;;;1.83;;
25213;SDS011;13160;51.834;4.706;2023-04-03T00:53:42;5.55;;;1.83;;
25213;SDS011;13160;51.834;4.706;2023-04-03T00:56:14;6.97;;;1.98;;
25213;SDS011;13160;51.834;4.706;2023-04-03T00:58:46;8.48;;;2.13;;
25213;SDS011;13160;51.834;4.706;2023-04-03T01:01:21;5.40;;;1.83;;
25213;SDS011;13160;51.834;4.706;2023-04-03T01:03:53;4.93;;;1.92;;
25213;SDS011;13160;51.834;4.706;2023-04-03T01:06:23;5.82;;;2.03;;
25213;SDS011;13160;51.834;4.706;2023-04-03T01:08:55;5.55;;;2.22;;
25213;SDS011;13160;51.834;4.706;2023-04-03T01:11:23;3.05;;;1.50;;
25213;SDS011;13160;51.834;4.706;2023-04-03T01:13:52;5.97;;;2.10;;
25213;SDS011;13160;51.834;4.706;2023-04-03T01:16:22;4.57;;;1.77;;
25213;SDS011;13160;51.834;4.706;2023-04-03T01:18:50;6.55;;;2.20;;
25213;SDS011;13160;51.834;4.706;2023-04-03T01:24:38;4.07;;;1.77;;
25213;SDS011;13160;51.834;4.706;2023-04-03T01:27:07;4.53;;;1.85;;
25213;SDS011;13160;51.834;4.706;2023-04-03T01:29:38;16.92;;;2.13;;
25213;SDS011;13160;51.834;4.706;2023-04-03T01:32:11;6.68;;;2.20;;
25213;SDS011;13160;51.834;4.706;2023-04-03T01:34:39;7.65;;;2.58;;
25213;SDS011;13160;51.834;4.706;2023-04-03T01:37:08;5.50;;;2.03;;
25213;SDS011;13160;51.834;4.706;2023-04-03T01:39:36;4.50;;;2.05;;
25213;SDS011;13160;51.834;4.706;2023-04-03T01:42:05;3.95;;;1.92;;
25213;SDS011;13160;51.834;4.706;2023-04-03T01:44:33;8.73;;;2.08;;
25213;SDS011;13160;51.834;4.706;2023-04-03T01:47:01;5.15;;;2.10;;
25213;SDS011;13160;51.834;4.706;2023-04-03T01:49:35;4.28;;;1.80;;
25213;SDS011;13160;51.834;4.706;2023-04-03T01:52:03;4.65;;;1.70;;
25213;SDS011;13160;51.834;4.706;2023-04-03T01:54:31;5.53;;;1.88;;
25213;SDS011;13160;51.834;4.706;2023-04-03T01:57:00;3.88;;;1.70;;
25213;SDS011;13160;51.834;4.706;2023-04-03T01:59:28;4.10;;;1.92;;
25213;SDS011;13160;51.834;4.706;2023-04-03T02:01:57;8.15;;;2.38;;
25213;SDS011;13160;51.834;4.706;2023-04-03T02:04:25;5.07;;;1.83;;
25213;SDS011;13160;51.834;4.706;2023-04-03T02:06:55;3.97;;;1.92;;
25213;SDS011;13160;51.834;4.706;2023-04-03T02:09:23;3.72;;;1.77;;
25213;SDS011;13160;51.834;4.706;2023-04-03T02:11:52;4.72;;;1.92;;
25213;SDS011;13160;51.834;4.706;2023-04-03T02:14:21;4.63;;;1.75;;
25213;SDS011;13160;51.834;4.706;2023-04-03T02:16:50;6.03;;;1.85;;
25213;SDS011;13160;51.834;4.706;2023-04-03T02:19:18;3.28;;;1.50;;
25213;SDS011;13160;51.834;4.706;2023-04-03T02:21:46;4.18;;;2.00;;
25213;SDS011;13160;51.834;4.706;2023-04-03T02:24:16;6.55;;;2.00;;
25213;SDS011;13160;51.834;4.706;2023-04-03T02:26:44;6.53;;;2.22;;
25213;SDS011;13160;51.834;4.706;2023-04-03T02:29:14;3.97;;;1.88;;
25213;SDS011;13160;51.834;4.706;2023-04-03T02:31:42;3.42;;;1.63;;
25213;SDS011;13160;51.834;4.706;2023-04-03T02:34:10;3.90;;;2.00;;
25213;SDS011;13160;51.834;4.706;2023-04-03T02:36:39;6.93;;;2.35;;
25213;SDS011;13160;51.834;4.706;2023-04-03T02:39:07;4.68;;;1.90;;
25213;SDS011;13160;51.834;4.706;2023-04-03T02:41:38;7.65;;;2.08;;
25213;SDS011;13160;51.834;4.706;2023-04-03T02:44:06;4.97;;;2.00;;
25213;SDS011;13160;51.834;4.706;2023-04-03T02:46:39;3.33;;;1.80;;
25213;SDS011;13160;51.834;4.706;2023-04-03T02:49:08;4.75;;;1.98;;
25213;SDS011;13160;51.834;4.706;2023-04-03T02:51:36;7.32;;;2.20;;
25213;SDS011;13160;51.834;4.706;2023-04-03T02:54:05;8.43;;;2.47;;
25213;SDS011;13160;51.834;4.706;2023-04-03T02:56:33;4.60;;;1.60;;
25213;SDS011;13160;51.834;4.706;2023-04-03T02:59:03;4.57;;;2.05;;
25213;SDS011;13160;51.834;4.706;2023-04-03T03:01:32;3.40;;;1.77;;
25213;SDS011;13160;51.834;4.706;2023-04-03T03:04:01;4.15;;;2.00;;
25213;SDS011;13160;51.834;4.706;2023-04-03T03:06:29;5.40;;;2.33;;
25213;SDS011;13160;51.834;4.706;2023-04-03T03:08:57;5.65;;;2.03;;
25213;SDS011;13160;51.834;4.706;2023-04-03T03:11:26;5.78;;;2.10;;
25213;SDS011;13160;51.834;4.706;2023-04-03T03:13:54;4.18;;;1.90;;
25213;SDS011;13160;51.834;4.706;2023-04-03T03:16:24;6.55;;;2.42;;
25213;SDS011;13160;51.834;4.706;2023-04-03T03:18:52;5.25;;;1.88;;
25213;SDS011;13160;51.834;4.706;2023-04-03T03:21:23;5.93;;;2.13;;
25213;SDS011;13160;51.834;4.706;2023-04-03T03:23:51;6.07;;;2.30;;
25213;SDS011;13160;51.834;4.706;2023-04-03T03:26:19;4.93;;;1.70;;
25213;SDS011;13160;51.834;4.706;2023-04-03T03:28:48;6.38;;;2.05;;
25213;SDS011;13160;51.834;4.706;2023-04-03T03:31:16;7.15;;;2.35;;
25213;SDS011;13160;51.834;4.706;2023-04-03T03:33:46;10.88;;;2.33;;
25213;SDS011;13160;51.834;4.706;2023-04-03T03:36:14;4.82;;;2.20;;
25213;SDS011;13160;51.834;4.706;2023-04-03T03:38:43;7.30;;;2.25;;
25213;SDS011;13160;51.834;4.706;2023-04-03T03:41:11;7.03;;;2.15;;
25213;SDS011;13160;51.834;4.706;2023-04-03T03:43:39;5.90;;;2.08;;
25213;SDS011;13160;51.834;4.706;2023-04-03T03:46:08;5.40;;;2.03;;
25213;SDS011;13160;51.834;4.706;2023-04-03T03:48:36;9.15;;;2.28;;
25213;SDS011;13160;51.834;4.706;2023-04-03T03:51:06;6.38;;;2.10;;
25213;SDS011;13160;51.834;4.706;2023-04-03T03:53:35;8.05;;;2.33;;
25213;SDS011;13160;51.834;4.706;2023-04-03T03:56:03;6.15;;;2.60;;
25213;SDS011;13160;51.834;4.706;2023-04-03T03:58:32;5.40;;;2.10;;
25213;SDS011;13160;51.834;4.706;2023-04-03T04:01:01;6.00;;;2.53;;
25213;SDS011;13160;51.834;4.706;2023-04-03T04:03:32;7.18;;;2.65;;
25213;SDS011;13160;51.834;4.706;2023-04-03T04:06:01;6.57;;;2.40;;
25213;SDS011;13160;51.834;4.706;2023-04-03T04:08:31;5.57;;;2.15;;
25213;SDS011;13160;51.834;4.706;2023-04-03T04:10:59;4.38;;;2.35;;
25213;SDS011;13160;51.834;4.706;2023-04-03T04:13:27;7.40;;;2.40;;
25213;SDS011;13160;51.834;4.706;2023-04-03T04:15:56;6.40;;;2.35;;
25213;SDS011;13160;51.834;4.706;2023-04-03T04:18:24;8.80;;;2.65;;
25213;SDS011;13160;51.834;4.706;2023-04-03T04:20:52;5.35;;;1.80;;
25213;SDS011;13160;51.834;4.706;2023-04-03T04:23:21;6.30;;;2.50;;
25213;SDS011;13160;51.834;4.706;2023-04-03T04:25:51;8.25;;;2.50;;
25213;SDS011;13160;51.834;4.706;2023-04-03T04:28:19;6.40;;;2.78;;
25213;SDS011;13160;51.834;4.706;2023-04-03T04:30:48;5.32;;;2.20;;
25213;SDS011;13160;51.834;4.706;2023-04-03T04:33:16;5.70;;;2.50;;
25213;SDS011;13160;51.834;4.706;2023-04-03T04:35:46;5.97;;;2.45;;
25213;SDS011;13160;51.834;4.706;2023-04-03T04:38:16;7.32;;;2.63;;
25213;SDS011;13160;51.834;4.706;2023-04-03T04:40:45;5.43;;;2.13;;
25213;SDS011;13160;51.834;4.706;2023-04-03T04:43:16;6.45;;;2.58;;
25213;SDS011;13160;51.834;4.706;2023-04-03T04:45:44;9.73;;;2.20;;
25213;SDS011;13160;51.834;4.706;2023-04-03T04:48:13;9.75;;;3.05;;
25213;SDS011;13160;51.834;4.706;2023-04-03T04:50:41;4.97;;;2.13;;
25213;SDS011;13160;51.834;4.706;2023-04-03T04:53:10;7.45;;;2.75;;
25213;SDS011;13160;51.834;4.706;2023-04-03T04:55:38;5.85;;;2.53;;
25213;SDS011;13160;51.834;4.706;2023-04-03T04:58:07;4.85;;;2.47;;
25213;SDS011;13160;51.834;4.706;2023-04-03T05:00:36;6.38;;;2.30;;
25213;SDS011;13160;51.834;4.706;2023-04-03T05:03:05;6.53;;;2.67;;
25213;SDS011;13160;51.834;4.706;2023-04-03T05:05:33;5.55;;;2.60;;
25213;SDS011;13160;51.834;4.706;2023-04-03T05:08:02;6.47;;;2.65;;
25213;SDS011;13160;51.834;4.706;2023-04-03T05:10:31;7.00;;;2.72;;
25213;SDS011;13160;51.834;4.706;2023-04-03T05:13:00;7.68;;;2.90;;
25213;SDS011;13160;51.834;4.706;2023-04-03T05:15:28;6.80;;;2.22;;
25213;SDS011;13160;51.834;4.706;2023-04-03T05:17:58;4.95;;;2.50;;
25213;SDS011;13160;51.834;4.706;2023-04-03T05:20:27;6.05;;;2.83;;
25213;SDS011;13160;51.834;4.706;2023-04-03T05:22:55;7.18;;;3.05;;
25213;SDS011;13160;51.834;4.706;2023-04-03T05:25:23;10.25;;;2.78;;
25213;SDS011;13160;51.834;4.706;2023-04-03T05:27:52;7.68;;;2.60;;
25213;SDS011;13160;51.834;4.706;2023-04-03T05:30:20;10.45;;;2.75;;
25213;SDS011;13160;51.834;4.706;2023-04-03T05:32:49;8.52;;;2.72;;
25213;SDS011;13160;51.834;4.706;2023-04-03T05:35:19;6.57;;;2.92;;
25213;SDS011;13160;51.834;4.706;2023-04-03T05:37:48;8.35;;;2.90;;
25213;SDS011;13160;51.834;4.706;2023-04-03T05:40:17;8.45;;;3.13;;
25213;SDS011;13160;51.834;4.706;2023-04-03T05:42:45;7.90;;;2.97;;
25213;SDS011;13160;51.834;4.706;2023-04-03T05:45:14;9.15;;;2.50;;
25213;SDS011;13160;51.834;4.706;2023-04-03T05:47:42;6.60;;;2.60;;
25213;SDS011;13160;51.834;4.706;2023-04-03T05:50:11;6.88;;;3.05;;
25213;SDS011;13160;51.834;4.706;2023-04-03T05:52:42;6.85;;;2.58;;
25213;SDS011;13160;51.834;4.706;2023-04-03T05:55:13;7.38;;;3.13;;
25213;SDS011;13160;51.834;4.706;2023-04-03T05:57:41;8.18;;;3.15;;
25213;SDS011;13160;51.834;4.706;2023-04-03T06:00:11;6.50;;;2.90;;
25213;SDS011;13160;51.834;4.706;2023-04-03T06:02:41;7.57;;;2.90;;
25213;SDS011;13160;51.834;4.706;2023-04-03T06:05:10;6.15;;;3.00;;
25213;SDS011;13160;51.834;4.706;2023-04-03T06:07:40;9.18;;;3.22;;
25213;SDS011;13160;51.834;4.706;2023-04-03T06:10:10;6.40;;;3.05;;
25213;SDS011;13160;51.834;4.706;2023-04-03T06:12:39;8.00;;;2.75;;
25213;SDS011;13160;51.834;4.706;2023-04-03T06:15:08;10.18;;;3.10;;
25213;SDS011;13160;51.834;4.706;2023-04-03T06:17:38;11.05;;;3.13;;
25213;SDS011;13160;51.834;4.706;2023-04-03T06:20:06;5.70;;;2.72;;
25213;SDS011;13160;51.834;4.706;2023-04-03T06:22:36;6.47;;;3.10;;
25213;SDS011;13160;51.834;4.706;2023-04-03T06:25:07;7.05;;;3.22;;
25213;SDS011;13160;51.834;4.706;2023-04-03T06:27:37;5.88;;;2.97;;
25213;SDS011;13160;51.834;4.706;2023-04-03T06:30:06;6.03;;;2.60;;
25213;SDS011;13160;51.834;4.706;2023-04-03T06:32:35;9.10;;;3.20;;
25213;SDS011;13160;51.834;4.706;2023-04-03T06:35:05;5.95;;;2.85;;
25213;SDS011;13160;51.834;4.706;2023-04-03T06:37:34;6.95;;;2.85;;
25213;SDS011;13160;51.834;4.706;2023-04-03T06:40:03;8.02;;;3.15;;
25213;SDS011;13160;51.834;4.706;2023-04-03T06:42:37;5.90;;;2.80;;
25213;SDS011;13160;51.834;4.706;2023-04-03T06:45:06;5.97;;;2.90;;
25213;SDS011;13160;51.834;4.706;2023-04-03T06:47:37;10.98;;;3.35;;
25213;SDS011;13160;51.834;4.706;2023-04-03T06:50:06;8.25;;;3.40;;
25213;SDS011;13160;51.834;4.706;2023-04-03T06:52:38;5.97;;;3.25;;
25213;SDS011;13160;51.834;4.706;2023-04-03T06:55:08;9.43;;;3.50;;
25213;SDS011;13160;51.834;4.706;2023-04-03T06:57:37;7.10;;;3.45;;
25213;SDS011;13160;51.834;4.706;2023-04-03T07:00:06;8.60;;;3.13;;
25213;SDS011;13160;51.834;4.706;2023-04-03T07:02:36;7.47;;;3.03;;
25213;SDS011;13160;51.834;4.706;2023-04-03T07:05:06;9.13;;;2.92;;
25213;SDS011;13160;51.834;4.706;2023-04-03T07:07:35;9.45;;;3.70;;
25213;SDS011;13160;51.834;4.706;2023-04-03T07:10:04;6.05;;;3.05;;
25213;SDS011;13160;51.834;4.706;2023-04-03T07:12:36;8.55;;;3.40;;
25213;SDS011;13160;51.834;4.706;2023-04-03T07:15:05;8.48;;;3.35;;
25213;SDS011;13160;51.834;4.706;2023-04-03T07:17:35;11.38;;;4.45;;
25213;SDS011;13160;51.834;4.706;2023-04-03T07:20:04;11.43;;;4.05;;
25213;SDS011;13160;51.834;4.706;2023-04-03T07:22:35;9.90;;;2.65;;
25213;SDS011;13160;51.834;4.706;2023-04-03T07:25:03;10.38;;;3.13;;
25213;SDS011;13160;51.834;4.706;2023-04-03T07:27:34;7.85;;;2.97;;
25213;SDS011;13160;51.834;4.706;2023-04-03T07:30:03;6.43;;;2.35;;
25213;SDS011;13160;51.834;4.706;2023-04-03T07:32:34;7.35;;;2.50;;
25213;SDS011;13160;51.834;4.706;2023-04-03T07:35:03;12.55;;;2.13;;
25213;SDS011;13160;51.834;4.706;2023-04-03T07:37:32;6.10;;;2.30;;
25213;SDS011;13160;51.834;4.706;2023-04-03T07:40:00;9.70;;;2.58;;
25213;SDS011;13160;51.834;4.706;2023-04-03T07:42:30;5.70;;;2.50;;
25213;SDS011;13160;51.834;4.706;2023-04-03T07:45:00;7.97;;;1.85;;
25213;SDS011;13160;51.834;4.706;2023-04-03T07:47:28;4.10;;;1.92;;
25213;SDS011;13160;51.834;4.706;2023-04-03T07:49:57;12.38;;;3.00;;
25213;SDS011;13160;51.834;4.706;2023-04-03T07:52:26;4.72;;;2.15;;
25213;SDS011;13160;51.834;4.706;2023-04-03T07:54:54;9.35;;;2.30;;
25213;SDS011;13160;51.834;4.706;2023-04-03T07:57:22;6.22;;;2.25;;
25213;SDS011;13160;51.834;4.706;2023-04-03T07:59:51;5.80;;;2.30;;
25213;SDS011;13160;51.834;4.706;2023-04-03T08:02:21;6.65;;;1.88;;
25213;SDS011;13160;51.834;4.706;2023-04-03T08:04:49;7.63;;;2.63;;
25213;SDS011;13160;51.834;4.706;2023-04-03T08:07:18;6.90;;;2.20;;
25213;SDS011;13160;51.834;4.706;2023-04-03T08:09:48;6.95;;;2.05;;
25213;SDS011;13160;51.834;4.706;2023-04-03T08:12:17;6.85;;;2.08;;
25213;SDS011;13160;51.834;4.706;2023-04-03T08:14:46;10.75;;;2.30;;
25213;SDS011;13160;51.834;4.706;2023-04-03T08:17:14;10.77;;;2.42;;
25213;SDS011;13160;51.834;4.706;2023-04-03T08:19:44;7.18;;;2.20;;
25213;SDS011;13160;51.834;4.706;2023-04-03T08:22:12;6.68;;;2.10;;
25213;SDS011;13160;51.834;4.706;2023-04-03T08:24:42;6.07;;;2.20;;
25213;SDS011;13160;51.834;4.706;2023-04-03T08:27:24;6.50;;;2.10;;
25213;SDS011;13160;51.834;4.706;2023-04-03T08:29:53;7.82;;;2.30;;
25213;SDS011;13160;51.834;4.706;2023-04-03T08:32:21;11.88;;;2.45;;
25213;SDS011;13160;51.834;4.706;2023-04-03T08:34:51;8.27;;;2.20;;
25213;SDS011;13160;51.834;4.706;2023-04-03T08:37:20;9.52;;;2.50;;
25213;SDS011;13160;51.834;4.706;2023-04-03T08:39:49;7.32;;;2.42;;
25213;SDS011;13160;51.834;4.706;2023-04-03T08:42:19;6.70;;;2.20;;
25213;SDS011;13160;51.834;4.706;2023-04-03T08:45:06;13.38;;;2.63;;
25213;SDS011;13160;51.834;4.706;2023-04-03T08:47:40;5.53;;;2.08;;
25213;SDS011;13160;51.834;4.706;2023-04-03T08:50:16;6.22;;;2.20;;
25213;SDS011;13160;51.834;4.706;2023-04-03T08:52:48;5.57;;;2.08;;
25213;SDS011;13160;51.834;4.706;2023-04-03T08:55:22;7.30;;;2.17;;
25213;SDS011;13160;51.834;4.706;2023-04-03T08:57:54;4.90;;;2.00;;
25213;SDS011;13160;51.834;4.706;2023-04-03T09:00:41;6.38;;;2.03;;
25213;SDS011;13160;51.834;4.706;2023-04-03T09:03:15;6.53;;;2.55;;
25213;SDS011;13160;51.834;4.706;2023-04-03T09:05:49;8.65;;;2.40;;
25213;SDS011;13160;51.834;4.706;2023-04-03T09:08:22;9.40;;;2.47;;
25213;SDS011;13160;51.834;4.706;2023-04-03T09:10:59;8.38;;;2.47;;
25213;SDS011;13160;51.834;4.706;2023-04-03T09:13:41;6.70;;;2.17;;
25213;SDS011;13160;51.834;4.706;2023-04-03T09:16:16;8.70;;;2.38;;
25213;SDS011;13160;51.834;4.706;2023-04-03T09:19:18;4.90;;;2.03;;
25213;SDS011;13160;51.834;4.706;2023-04-03T09:21:57;8.23;;;2.40;;
25213;SDS011;13160;51.834;4.706;2023-04-03T09:24:26;5.28;;;2.17;;
25213;SDS011;13160;51.834;4.706;2023-04-03T09:26:56;7.35;;;2.10;;
25213;SDS011;13160;51.834;4.706;2023-04-03T09:29:29;5.10;;;1.80;;
25213;SDS011;13160;51.834;4.706;2023-04-03T09:31:58;6.25;;;1.92;;
25213;SDS011;13160;51.834;4.706;2023-04-03T09:34:30;6.03;;;2.10;;
25213;SDS011;13160;51.834;4.706;2023-04-03T09:37:04;6.65;;;2.03;;
25213;SDS011;13160;51.834;4.706;2023-04-03T09:39:48;5.57;;;2.03;;
25213;SDS011;13160;51.834;4.706;2023-04-03T09:42:20;5.40;;;1.55;;
25213;SDS011;13160;51.834;4.706;2023-04-03T09:44:53;4.68;;;1.60;;
25213;SDS011;13160;51.834;4.706;2023-04-03T09:47:24;5.32;;;1.45;;
25213;SDS011;13160;51.834;4.706;2023-04-03T09:50:09;5.75;;;1.30;;
25213;SDS011;13160;51.834;4.706;2023-04-03T09:52:49;3.67;;;1.38;;
25213;SDS011;13160;51.834;4.706;2023-04-03T09:55:20;4.43;;;1.17;;
25213;SDS011;13160;51.834;4.706;2023-04-03T09:57:53;3.50;;;0.88;;
25213;SDS011;13160;51.834;4.706;2023-04-03T10:00:23;3.00;;;1.00;;
25213;SDS011;13160;51.834;4.706;2023-04-03T10:02:54;3.15;;;1.00;;
25213;SDS011;13160;51.834;4.706;2023-04-03T10:05:28;2.20;;;0.82;;
25213;SDS011;13160;51.834;4.706;2023-04-03T10:08:08;3.30;;;1.00;;
25213;SDS011;13160;51.834;4.706;2023-04-03T10:11:05;3.38;;;0.82;;
25213;SDS011;13160;51.834;4.706;2023-04-03T10:13:50;4.03;;;1.40;;
25213;SDS011;13160;51.834;4.706;2023-04-03T10:16:23;2.60;;;1.10;;
25213;SDS011;13160;51.834;4.706;2023-04-03T10:18:59;2.45;;;0.98;;
25213;SDS011;13160;51.834;4.706;2023-04-03T10:21:45;3.47;;;1.10;;
25213;SDS011;13160;51.834;4.706;2023-04-03T10:24:23;3.08;;;1.20;;
25213;SDS011;13160;51.834;4.706;2023-04-03T10:27:01;2.22;;;1.05;;
25213;SDS011;13160;51.834;4.706;2023-04-03T10:29:36;1.67;;;0.80;;
25213;SDS011;13160;51.834;4.706;2023-04-03T10:32:13;1.58;;;0.73;;
25213;SDS011;13160;51.834;4.706;2023-04-03T10:35:14;2.25;;;0.65;;
25213;SDS011;13160;51.834;4.706;2023-04-03T10:37:55;1.92;;;0.70;;
25213;SDS011;13160;51.834;4.706;2023-04-03T10:40:38;3.55;;;0.95;;
25213;SDS011;13160;51.834;4.706;2023-04-03T10:43:17;4.47;;;0.85;;
25213;SDS011;13160;51.834;4.706;2023-04-03T10:46:00;2.17;;;0.60;;
25213;SDS011;13160;51.834;4.706;2023-04-03T10:48:40;1.83;;;0.70;;
25213;SDS011;13160;51.834;4.706;2023-04-03T10:51:36;2.63;;;0.93;;
25213;SDS011;13160;51.834;4.706;2023-04-03T10:54:11;5.53;;;0.98;;
25213;SDS011;13160;51.834;4.706;2023-04-03T10:56:44;3.30;;;0.80;;
25213;SDS011;13160;51.834;4.706;2023-04-03T10:59:26;3.33;;;1.05;;
25213;SDS011;13160;51.834;4.706;2023-04-03T11:02:00;2.85;;;0.82;;
25213;SDS011;13160;51.834;4.706;2023-04-03T11:04:36;2.60;;;0.80;;
25213;SDS011;13160;51.834;4.706;2023-04-03T11:07:08;2.58;;;0.70;;
25213;SDS011;13160;51.834;4.706;2023-04-03T11:09:42;1.80;;;0.80;;
25213;SDS011;13160;51.834;4.706;2023-04-03T11:12:17;2.50;;;0.85;;
25213;SDS011;13160;51.834;4.706;2023-04-03T11:14:51;2.72;;;0.82;;
25213;SDS011;13160;51.834;4.706;2023-04-03T11:17:26;2.25;;;0.88;;
25213;SDS011;13160;51.834;4.706;2023-04-03T11:20:03;2.65;;;0.80;;
25213;SDS011;13160;51.834;4.706;2023-04-03T11:22:39;3.13;;;0.80;;
25213;SDS011;13160;51.834;4.706;2023-04-03T11:25:14;3.50;;;0.70;;
25213;SDS011;13160;51.834;4.706;2023-04-03T11:27:52;2.25;;;1.05;;
25213;SDS011;13160;51.834;4.706;2023-04-03T11:30:25;2.97;;;0.93;;
25213;SDS011;13160;51.834;4.706;2023-04-03T11:33:04;2.88;;;0.82;;
25213;SDS011;13160;51.834;4.706;2023-04-03T11:35:48;4.25;;;1.05;;
25213;SDS011;13160;51.834;4.706;2023-04-03T11:38:21;2.95;;;0.88;;
25213;SDS011;13160;51.834;4.706;2023-04-03T11:40:55;3.20;;;1.00;;
25213;SDS011;13160;51.834;4.706;2023-04-03T11:43:27;1.77;;;0.70;;
25213;SDS011;13160;51.834;4.706;2023-04-03T11:45:58;2.08;;;0.70;;
25213;SDS011;13160;51.834;4.706;2023-04-03T11:48:42;3.55;;;0.85;;
25213;SDS011;13160;51.834;4.706;2023-04-03T11:51:40;5.43;;;1.00;;
25213;SDS011;13160;51.834;4.706;2023-04-03T12:06:47;2.10;;;0.82;;
25213;SDS011;13160;51.834;4.706;2023-04-03T12:09:29;2.20;;;0.77;;
25213;SDS011;13160;51.834;4.706;2023-04-03T12:12:27;1.95;;;0.80;;
25213;SDS011;13160;51.834;4.706;2023-04-03T12:15:24;3.40;;;0.98;;
25213;SDS011;13160;51.834;4.706;2023-04-03T12:21:16;5.78;;;0.70;;
25213;SDS011;13160;51.834;4.706;2023-04-03T12:23:58;1.92;;;0.70;;
25213;SDS011;13160;51.834;4.706;2023-04-03T12:26:32;2.95;;;1.20;;
25213;SDS011;13160;51.834;4.706;2023-04-03T12:29:15;3.53;;;1.00;;
25213;SDS011;13160;51.834;4.706;2023-04-03T12:31:55;1.75;;;0.70;;
25213;SDS011;13160;51.834;4.706;2023-04-03T12:34:53;1.77;;;0.88;;
25213;SDS011;13160;51.834;4.706;2023-04-03T12:37:39;2.35;;;0.80;;
25213;SDS011;13160;51.834;4.706;2023-04-03T12:40:24;5.53;;;1.00;;
25213;SDS011;13160;51.834;4.706;2023-04-03T12:43:11;2.67;;;0.90;;
25213;SDS011;13160;51.834;4.706;2023-04-03T12:46:09;2.25;;;0.80;;
25213;SDS011;13160;51.834;4.706;2023-04-03T12:48:47;4.07;;;1.05;;
25213;SDS011;13160;51.834;4.706;2023-04-03T12:51:19;4.80;;;1.20;;
25213;SDS011;13160;51.834;4.706;2023-04-03T12:53:56;2.72;;;0.80;;
25213;SDS011;13160;51.834;4.706;2023-04-03T12:56:30;3.13;;;1.27;;
25213;SDS011;13160;51.834;4.706;2023-04-03T12:59:12;3.30;;;1.23;;
25213;SDS011;13160;51.834;4.706;2023-04-03T13:01:44;2.83;;;1.10;;
25213;SDS011;13160;51.834;4.706;2023-04-03T13:04:21;3.10;;;1.13;;
25213;SDS011;13160;51.834;4.706;2023-04-03T13:06:52;5.82;;;1.38;;
25213;SDS011;13160;51.834;4.706;2023-04-03T13:09:21;5.30;;;1.20;;
25213;SDS011;13160;51.834;4.706;2023-04-03T13:11:53;3.70;;;1.17;;
25213;SDS011;13160;51.834;4.706;2023-04-03T13:14:27;3.97;;;1.08;;
25213;SDS011;13160;51.834;4.706;2023-04-03T13:16:57;3.38;;;1.10;;
25213;SDS011;13160;51.834;4.706;2023-04-03T13:19:28;4.65;;;1.35;;
25213;SDS011;13160;51.834;4.706;2023-04-03T13:22:00;6.15;;;1.50;;
25213;SDS011;13160;51.834;4.706;2023-04-03T13:24:32;4.20;;;1.38;;
25213;SDS011;13160;51.834;4.706;2023-04-03T13:27:04;4.60;;;1.48;;
25213;SDS011;13160;51.834;4.706;2023-04-03T13:29:34;4.75;;;1.17;;
25213;SDS011;13160;51.834;4.706;2023-04-03T13:32:05;3.40;;;1.30;;
25213;SDS011;13160;51.834;4.706;2023-04-03T13:34:36;5.38;;;1.55;;
25213;SDS011;13160;51.834;4.706;2023-04-03T13:37:21;3.35;;;1.48;;
25213;SDS011;13160;51.834;4.706;2023-04-03T13:40:02;7.22;;;1.50;;
25213;SDS011;13160;51.834;4.706;2023-04-03T13:42:38;5.22;;;1.20;;
25213;SDS011;13160;51.834;4.706;2023-04-03T13:45:16;5.30;;;1.60;;
25213;SDS011;13160;51.834;4.706;2023-04-03T13:47:50;2.75;;;1.25;;
25213;SDS011;13160;51.834;4.706;2023-04-03T13:50:23;4.45;;;1.63;;
25213;SDS011;13160;51.834;4.706;2023-04-03T13:52:54;3.53;;;1.63;;
25213;SDS011;13160;51.834;4.706;2023-04-03T13:55:30;4.82;;;1.33;;
25213;SDS011;13160;51.834;4.706;2023-04-03T13:58:03;4.68;;;1.30;;
25213;SDS011;13160;51.834;4.706;2023-04-03T14:00:50;3.95;;;1.42;;
25213;SDS011;13160;51.834;4.706;2023-04-03T14:03:22;4.55;;;1.40;;
25213;SDS011;13160;51.834;4.706;2023-04-03T14:05:56;3.03;;;1.35;;
25213;SDS011;13160;51.834;4.706;2023-04-03T14:08:26;3.67;;;1.52;;
25213;SDS011;13160;51.834;4.706;2023-04-03T14:11:09;5.07;;;1.55;;
25213;SDS011;13160;51.834;4.706;2023-04-03T14:13:42;3.47;;;1.50;;
25213;SDS011;13160;51.834;4.706;2023-04-03T14:16:13;5.65;;;1.40;;
25213;SDS011;13160;51.834;4.706;2023-04-03T14:18:43;6.38;;;1.38;;
25213;SDS011;13160;51.834;4.706;2023-04-03T14:21:13;7.15;;;1.73;;
25213;SDS011;13160;51.834;4.706;2023-04-03T14:23:45;3.72;;;1.33;;
25213;SDS011;13160;51.834;4.706;2023-04-03T14:26:15;5.05;;;1.50;;
25213;SDS011;13160;51.834;4.706;2023-04-03T14:28:48;5.07;;;1.60;;
25213;SDS011;13160;51.834;4.706;2023-04-03T14:31:20;4.47;;;1.63;;
25213;SDS011;13160;51.834;4.706;2023-04-03T14:33:49;5.07;;;1.30;;
25213;SDS011;13160;51.834;4.706;2023-04-03T14:36:19;5.40;;;1.50;;
25213;SDS011;13160;51.834;4.706;2023-04-03T14:38:53;4.40;;;1.38;;
25213;SDS011;13160;51.834;4.706;2023-04-03T14:41:23;2.80;;;1.25;;
25213;SDS011;13160;51.834;4.706;2023-04-03T14:43:53;3.10;;;1.42;;
25213;SDS011;13160;51.834;4.706;2023-04-03T14:46:22;3.38;;;1.30;;
25213;SDS011;13160;51.834;4.706;2023-04-03T14:49:18;4.32;;;1.52;;
25213;SDS011;13160;51.834;4.706;2023-04-03T14:51:50;3.20;;;1.33;;
25213;SDS011;13160;51.834;4.706;2023-04-03T14:54:21;5.60;;;1.65;;
25213;SDS011;13160;51.834;4.706;2023-04-03T14:56:55;3.40;;;1.30;;
25213;SDS011;13160;51.834;4.706;2023-04-03T14:59:25;6.30;;;1.73;;
25213;SDS011;13160;51.834;4.706;2023-04-03T15:01:55;4.72;;;1.33;;
25213;SDS011;13160;51.834;4.706;2023-04-03T15:04:24;4.82;;;1.35;;
25213;SDS011;13160;51.834;4.706;2023-04-03T15:06:54;4.60;;;1.40;;
25213;SDS011;13160;51.834;4.706;2023-04-03T15:09:25;3.75;;;1.60;;
25213;SDS011;13160;51.834;4.706;2023-04-03T15:11:55;4.35;;;1.65;;
25213;SDS011;13160;51.834;4.706;2023-04-03T15:14:23;3.33;;;1.42;;
25213;SDS011;13160;51.834;4.706;2023-04-03T15:17:02;4.65;;;1.48;;
25213;SDS011;13160;51.834;4.706;2023-04-03T15:19:32;4.30;;;1.30;;
25213;SDS011;13160;51.834;4.706;2023-04-03T15:22:05;4.78;;;1.63;;
25213;SDS011;13160;51.834;4.706;2023-04-03T15:24:35;5.20;;;1.77;;
25213;SDS011;13160;51.834;4.706;2023-04-03T15:27:06;4.75;;;1.60;;
25213;SDS011;13160;51.834;4.706;2023-04-03T15:29:34;4.07;;;1.55;;
25213;SDS011;13160;51.834;4.706;2023-04-03T15:32:04;8.23;;;1.52;;
25213;SDS011;13160;51.834;4.706;2023-04-03T15:34:32;4.15;;;1.70;;
25213;SDS011;13160;51.834;4.706;2023-04-03T15:37:01;5.32;;;1.55;;